Time;durP1;ratioP1;P1;durP2;ratioP2;P2;SDS_P1;SDS_P2;PMS_P1;PMS_P2;Temp;Humidity;BMP_temperature;BMP_pressure;BME280_temperature;BME280_humidity;BME280_pressure;Samples;Min_cycle;Max_cycle;Signal;HPM_P1;HPM_P2
2023/12/14 00:01:16;;;;;;;11.70;8.13;;;;;;;;;;5068714;28;20494;-82
2023/12/14 00:03:44;;;;;;;13.93;7.30;;;;;;;;;;5067377;28;20640;-82
2023/12/14 00:06:10;;;;;;;17.70;8.47;;;;;;;;;;5074957;28;20483;-82
2023/12/14 00:08:36;;;;;;;17.50;8.23;;;;;;;;;;5076498;28;20483;-82
2023/12/14 00:11:05;;;;;;;13.20;8.10;;;;;;;;;;5078037;28;20947;-82
2023/12/14 00:13:32;;;;;;;11.37;8.17;;;;;;;;;;5080605;28;20542;-81
2023/12/14 00:15:58;;;;;;;13.17;8.13;;;;;;;;;;5081004;28;20574;-82
2023/12/14 00:18:25;;;;;;;10.67;7.03;;;;;;;;;;5079627;28;20531;-85
2023/12/14 00:20:52;;;;;;;11.43;7.87;;;;;;;;;;5074043;28;20460;-86
2023/12/14 00:23:18;;;;;;;15.13;8.50;;;;;;;;;;5076465;28;20514;-87
2023/12/14 00:25:45;;;;;;;14.90;8.03;;;;;;;;;;5080554;28;20547;-86
2023/12/14 00:28:13;;;;;;;11.47;8.27;;;;;;;;;;5074225;28;20467;-86
2023/12/14 00:30:39;;;;;;;11.80;6.80;;;;;;;;;;5072860;28;20532;-86
2023/12/14 00:33:06;;;;;;;14.30;7.93;;;;;;;;;;5080021;28;20475;-86
2023/12/14 00:35:32;;;;;;;11.60;8.03;;;;;;;;;;5078141;28;20524;-86
2023/12/14 00:37:59;;;;;;;11.43;7.33;;;;;;;;;;5081849;28;20483;-87
2023/12/14 00:40:26;;;;;;;11.37;7.60;;;;;;;;;;5076985;28;20547;-86
2023/12/14 00:42:52;;;;;;;13.83;8.50;;;;;;;;;;5075292;28;20448;-86
2023/12/14 00:45:20;;;;;;;13.73;9.40;;;;;;;;;;5078559;28;20593;-86
2023/12/14 00:47:46;;;;;;;14.10;8.40;;;;;;;;;;5073514;28;20556;-86
2023/12/14 00:50:12;;;;;;;14.93;8.03;;;;;;;;;;5078849;28;20524;-85
2023/12/14 00:52:39;;;;;;;14.73;8.13;;;;;;;;;;5076533;28;20548;-86
2023/12/14 00:55:06;;;;;;;10.93;6.93;;;;;;;;;;5080562;28;20514;-86
2023/12/14 00:57:32;;;;;;;13.97;7.80;;;;;;;;;;5072062;28;20512;-86
2023/12/14 00:59:58;;;;;;;11.13;7.50;;;;;;;;;;5076823;28;21480;-81
2023/12/14 01:02:26;;;;;;;12.13;7.17;;;;;;;;;;5080216;28;20506;-82
2023/12/14 01:04:53;;;;;;;16.53;7.33;;;;;;;;;;5074152;28;20524;-83
2023/12/14 01:07:19;;;;;;;12.67;7.53;;;;;;;;;;5078780;28;20543;-82
2023/12/14 01:09:45;;;;;;;12.73;7.63;;;;;;;;;;5078417;28;20487;-81
2023/12/14 01:12:12;;;;;;;16.40;8.23;;;;;;;;;;5074008;28;20835;-82
2023/12/14 01:14:38;;;;;;;12.90;7.87;;;;;;;;;;5077297;28;20512;-83
2023/12/14 01:17:04;;;;;;;10.00;6.87;;;;;;;;;;5074211;28;20468;-82
2023/12/14 01:19:32;;;;;;;10.70;5.83;;;;;;;;;;5080232;28;20475;-82
2023/12/14 01:21:59;;;;;;;12.90;6.50;;;;;;;;;;5079891;28;20475;-82
2023/12/14 01:24:25;;;;;;;11.57;7.07;;;;;;;;;;5080084;28;20750;-82
2023/12/14 01:26:51;;;;;;;11.50;7.80;;;;;;;;;;5078957;28;20953;-82
2023/12/14 01:29:18;;;;;;;10.20;7.03;;;;;;;;;;5073583;28;20560;-82
2023/12/14 01:31:44;;;;;;;10.77;7.00;;;;;;;;;;5079122;28;20516;-83
2023/12/14 01:34:12;;;;;;;9.70;6.20;;;;;;;;;;5077512;28;20508;-83
2023/12/14 01:36:40;;;;;;;12.17;7.53;;;;;;;;;;5074899;28;20451;-82
2023/12/14 01:39:06;;;;;;;11.07;7.30;;;;;;;;;;5077007;28;21141;-83
2023/12/14 01:41:32;;;;;;;10.53;6.63;;;;;;;;;;5078127;28;20465;-83
2023/12/14 01:43:59;;;;;;;12.67;7.03;;;;;;;;;;5080166;28;20479;-83
2023/12/14 01:46:26;;;;;;;10.50;7.17;;;;;;;;;;5077984;28;20565;-83
2023/12/14 01:48:53;;;;;;;10.73;7.30;;;;;;;;;;5075377;28;20460;-82
2023/12/14 01:51:19;;;;;;;10.90;6.87;;;;;;;;;;5068495;28;21007;-82
2023/12/14 01:53:47;;;;;;;14.13;7.00;;;;;;;;;;5075552;28;20516;-82
2023/12/14 01:56:14;;;;;;;12.53;6.63;;;;;;;;;;5074278;28;20944;-82
2023/12/14 01:58:40;;;;;;;8.80;5.40;;;;;;;;;;5080291;28;20455;-85
2023/12/14 02:01:09;;;;;;;9.93;6.37;;;;;;;;;;5071369;28;20487;-86
2023/12/14 02:03:35;;;;;;;7.23;5.40;;;;;;;;;;5077271;28;20448;-86
2023/12/14 02:06:02;;;;;;;10.20;6.10;;;;;;;;;;5073965;28;20540;-86
2023/12/14 02:08:28;;;;;;;9.03;6.13;;;;;;;;;;5072251;28;20459;-85
2023/12/14 02:10:56;;;;;;;10.27;6.60;;;;;;;;;;5076921;28;20460;-85
2023/12/14 02:13:23;;;;;;;7.03;5.77;;;;;;;;;;5079416;28;20520;-86
2023/12/14 02:15:49;;;;;;;9.07;6.33;;;;;;;;;;5076582;28;20452;-86
2023/12/14 02:18:16;;;;;;;10.20;6.13;;;;;;;;;;5078300;28;20525;-85
2023/12/14 02:20:42;;;;;;;8.30;6.30;;;;;;;;;;5076862;28;20516;-85
2023/12/14 02:23:10;;;;;;;9.73;6.80;;;;;;;;;;5074858;28;20511;-84
2023/12/14 02:25:36;;;;;;;10.20;6.57;;;;;;;;;;5076476;28;20547;-86
2023/12/14 02:28:03;;;;;;;8.87;6.27;;;;;;;;;;5078787;28;20551;-86
2023/12/14 02:30:30;;;;;;;10.70;7.10;;;;;;;;;;5076872;28;20499;-86
2023/12/14 02:32:56;;;;;;;9.80;7.03;;;;;;;;;;5078472;28;21072;-86
2023/12/14 02:35:22;;;;;;;8.90;7.00;;;;;;;;;;5075892;28;20475;-86
2023/12/14 02:37:49;;;;;;;8.37;5.53;;;;;;;;;;5078158;28;20524;-87
2023/12/14 02:40:17;;;;;;;11.20;6.70;;;;;;;;;;5079733;28;20886;-87
2023/12/14 02:42:44;;;;;;;9.83;6.73;;;;;;;;;;5079554;28;20470;-87
2023/12/14 02:45:10;;;;;;;9.27;6.70;;;;;;;;;;5078652;28;21011;-85
2023/12/14 02:47:37;;;;;;;13.67;7.77;;;;;;;;;;5079419;28;20515;-86
2023/12/14 02:50:03;;;;;;;11.30;7.43;;;;;;;;;;5079607;28;20484;-86
2023/12/14 02:52:30;;;;;;;10.20;7.20;;;;;;;;;;5078329;28;20445;-85
2023/12/14 02:54:56;;;;;;;10.23;8.00;;;;;;;;;;5072479;28;20486;-86
2023/12/14 02:57:24;;;;;;;13.50;8.17;;;;;;;;;;5079829;28;20539;-86
2023/12/14 02:59:50;;;;;;;12.97;7.80;;;;;;;;;;5079858;28;20463;-86
2023/12/14 03:02:17;;;;;;;10.60;7.37;;;;;;;;;;5079844;28;20487;-86
2023/12/14 03:04:43;;;;;;;13.10;7.90;;;;;;;;;;5080876;28;20483;-85
2023/12/14 03:07:10;;;;;;;12.53;8.60;;;;;;;;;;5080275;28;20508;-86
2023/12/14 03:09:41;;;;;;;12.07;8.03;;;;;;;;;;5078832;28;20897;-86
2023/12/14 03:12:07;;;;;;;13.63;8.40;;;;;;;;;;5079517;28;20440;-86
2023/12/14 03:14:35;;;;;;;13.93;8.87;;;;;;;;;;5078678;28;20456;-86
2023/12/14 03:17:02;;;;;;;13.30;7.33;;;;;;;;;;5078120;28;20455;-86
2023/12/14 03:19:28;;;;;;;12.63;8.53;;;;;;;;;;5078158;28;20460;-86
2023/12/14 03:21:55;;;;;;;12.73;8.73;;;;;;;;;;5078907;28;20495;-86
2023/12/14 03:24:21;;;;;;;15.07;9.37;;;;;;;;;;5079106;28;20479;-85
2023/12/14 03:26:47;;;;;;;13.93;9.10;;;;;;;;;;5079112;28;20515;-86
2023/12/14 03:29:14;;;;;;;11.07;8.57;;;;;;;;;;5073030;28;20967;-86
2023/12/14 03:31:42;;;;;;;14.37;8.80;;;;;;;;;;5075672;28;20522;-85
2023/12/14 03:34:08;;;;;;;19.43;9.27;;;;;;;;;;5079752;28;20504;-85
2023/12/14 03:36:34;;;;;;;12.87;8.63;;;;;;;;;;5076111;28;20571;-85
2023/12/14 03:39:01;;;;;;;13.37;9.70;;;;;;;;;;5077082;28;20926;-86
2023/12/14 03:41:27;;;;;;;12.27;8.23;;;;;;;;;;5075832;28;20456;-85
2023/12/14 03:43:54;;;;;;;13.67;8.50;;;;;;;;;;5073804;28;20511;-86
2023/12/14 03:46:20;;;;;;;16.20;10.40;;;;;;;;;;5078324;28;20538;-86
2023/12/14 03:48:48;;;;;;;12.30;8.90;;;;;;;;;;5082249;28;20571;-86
2023/12/14 03:51:17;;;;;;;12.70;9.37;;;;;;;;;;5078706;28;20484;-86
2023/12/14 03:53:43;;;;;;;16.63;9.57;;;;;;;;;;5071755;28;20444;-86
2023/12/14 03:56:10;;;;;;;11.93;8.03;;;;;;;;;;5082484;28;20547;-87
2023/12/14 03:58:36;;;;;;;14.23;9.23;;;;;;;;;;5082774;28;20470;-87
2023/12/14 04:01:03;;;;;;;13.30;9.37;;;;;;;;;;5081482;28;20476;-86
2023/12/14 04:03:29;;;;;;;14.30;8.60;;;;;;;;;;5082370;28;20585;-86
2023/12/14 04:05:57;;;;;;;13.10;9.37;;;;;;;;;;5078888;28;20456;-87
2023/12/14 04:08:23;;;;;;;13.87;8.87;;;;;;;;;;5082722;28;20515;-82
2023/12/14 04:10:49;;;;;;;15.70;9.60;;;;;;;;;;5078846;28;21014;-82
2023/12/14 04:13:16;;;;;;;18.63;11.80;;;;;;;;;;5079672;28;20487;-82
2023/12/14 04:15:42;;;;;;;19.70;10.10;;;;;;;;;;5080969;28;21184;-82
2023/12/14 04:18:09;;;;;;;16.90;11.33;;;;;;;;;;5082053;28;20517;-82
2023/12/14 04:20:35;;;;;;;17.20;11.93;;;;;;;;;;5082358;28;20499;-82
2023/12/14 04:23:03;;;;;;;18.87;11.97;;;;;;;;;;5081310;28;20562;-83
2023/12/14 04:25:29;;;;;;;19.00;11.37;;;;;;;;;;5081864;28;20451;-83
2023/12/14 04:27:56;;;;;;;18.07;12.90;;;;;;;;;;5081814;28;20486;-82
2023/12/14 04:30:22;;;;;;;18.30;11.47;;;;;;;;;;5081246;28;21039;-82
2023/12/14 04:32:49;;;;;;;21.73;12.87;;;;;;;;;;5081844;28;20567;-83
2023/12/14 04:35:15;;;;;;;20.60;11.93;;;;;;;;;;5081762;28;20451;-82
2023/12/14 04:37:41;;;;;;;19.50;11.77;;;;;;;;;;5082404;28;20475;-83
2023/12/14 04:40:10;;;;;;;17.77;11.67;;;;;;;;;;5081899;28;20534;-83
2023/12/14 04:42:37;;;;;;;17.60;11.43;;;;;;;;;;5081765;28;20821;-83
2023/12/14 04:45:03;;;;;;;17.07;11.30;;;;;;;;;;5080861;28;20483;-83
2023/12/14 04:47:30;;;;;;;20.73;11.60;;;;;;;;;;5081066;28;20522;-83
2023/12/14 04:49:56;;;;;;;17.80;12.37;;;;;;;;;;5080838;28;20500;-83
2023/12/14 04:52:23;;;;;;;19.97;11.07;;;;;;;;;;5081954;28;20982;-81
2023/12/14 04:54:49;;;;;;;21.10;11.90;;;;;;;;;;5078572;28;20519;-82
2023/12/14 04:57:18;;;;;;;17.03;12.03;;;;;;;;;;5079337;28;20495;-82
2023/12/14 04:59:44;;;;;;;17.37;11.13;;;;;;;;;;5081102;28;20460;-82
2023/12/14 05:02:10;;;;;;;17.57;11.40;;;;;;;;;;5080362;28;21145;-82
2023/12/14 05:04:37;;;;;;;15.47;10.23;;;;;;;;;;5081423;28;20452;-81
2023/12/14 05:07:03;;;;;;;18.03;11.13;;;;;;;;;;5081091;28;20488;-82
2023/12/14 05:09:30;;;;;;;16.93;11.10;;;;;;;;;;5078345;28;20515;-82
2023/12/14 05:11:56;;;;;;;15.30;10.20;;;;;;;;;;5074687;28;20496;-83
2023/12/14 05:14:24;;;;;;;17.07;11.47;;;;;;;;;;5078403;28;20483;-83
2023/12/14 05:16:51;;;;;;;18.33;11.87;;;;;;;;;;5080906;28;20475;-82
2023/12/14 05:19:18;;;;;;;20.10;13.70;;;;;;;;;;5077636;28;20472;-82
2023/12/14 05:21:44;;;;;;;17.40;12.17;;;;;;;;;;5073107;28;20514;-83
2023/12/14 05:24:11;;;;;;;17.57;12.37;;;;;;;;;;5073659;28;21198;-82
2023/12/14 05:26:37;;;;;;;18.50;11.30;;;;;;;;;;5071909;28;20528;-83
2023/12/14 05:29:04;;;;;;;17.00;11.57;;;;;;;;;;5074910;28;20588;-82
2023/12/14 05:31:31;;;;;;;15.63;11.87;;;;;;;;;;5071400;28;20575;-83
2023/12/14 05:33:58;;;;;;;15.53;11.77;;;;;;;;;;5073994;28;20502;-83
2023/12/14 05:36:24;;;;;;;14.20;10.33;;;;;;;;;;5069151;28;20935;-83
2023/12/14 05:38:51;;;;;;;10.60;9.10;;;;;;;;;;5070074;28;20463;-83
2023/12/14 05:41:17;;;;;;;13.90;10.17;;;;;;;;;;5073594;28;20523;-82
2023/12/14 05:43:43;;;;;;;11.87;8.60;;;;;;;;;;5072909;28;20480;-82
2023/12/14 05:46:10;;;;;;;12.10;8.97;;;;;;;;;;5071683;28;20574;-87
2023/12/14 05:48:38;;;;;;;12.60;9.10;;;;;;;;;;5070584;28;20504;-84
2023/12/14 05:51:05;;;;;;;14.10;9.63;;;;;;;;;;5068582;28;21023;-85
2023/12/14 05:53:31;;;;;;;9.77;8.60;;;;;;;;;;5070873;28;20468;-85
2023/12/14 05:55:59;;;;;;;13.23;9.50;;;;;;;;;;5073426;28;20460;-86
2023/12/14 05:58:25;;;;;;;13.87;8.37;;;;;;;;;;5073462;28;20451;-85
2023/12/14 06:00:51;;;;;;;10.17;8.00;;;;;;;;;;5071657;28;20485;-87
2023/12/14 06:03:18;;;;;;;13.67;8.80;;;;;;;;;;5071806;28;20437;-86
2023/12/14 06:05:46;;;;;;;13.57;9.80;;;;;;;;;;5075434;28;20491;-87
2023/12/14 06:08:12;;;;;;;12.87;9.10;;;;;;;;;;5070754;28;20494;-86
2023/12/14 06:10:39;;;;;;;11.90;10.47;;;;;;;;;;5069419;28;20488;-86
2023/12/14 06:13:05;;;;;;;14.77;10.90;;;;;;;;;;5076554;28;20471;-83
2023/12/14 06:15:32;;;;;;;13.40;11.27;;;;;;;;;;5074361;28;20484;-85
2023/12/14 06:17:59;;;;;;;13.50;10.50;;;;;;;;;;5075209;28;20444;-85
2023/12/14 06:20:25;;;;;;;13.33;10.00;;;;;;;;;;5078819;28;20450;-85
2023/12/14 06:22:54;;;;;;;15.50;11.30;;;;;;;;;;5079668;28;20456;-86
2023/12/14 06:25:20;;;;;;;16.83;10.07;;;;;;;;;;5075039;28;20463;-88
2023/12/14 06:27:47;;;;;;;14.63;9.97;;;;;;;;;;5079125;28;20567;-88
2023/12/14 06:30:13;;;;;;;14.07;10.17;;;;;;;;;;5078072;28;20476;-87
2023/12/14 06:32:40;;;;;;;14.80;11.07;;;;;;;;;;5079997;28;20519;-87
2023/12/14 06:35:07;;;;;;;14.73;11.50;;;;;;;;;;5079443;28;20511;-85
2023/12/14 06:37:33;;;;;;;16.10;11.47;;;;;;;;;;5079661;28;20892;-88
2023/12/14 06:40:01;;;;;;;12.80;10.60;;;;;;;;;;5072821;28;20524;-87
2023/12/14 06:42:28;;;;;;;15.80;10.77;;;;;;;;;;5067632;28;20492;-87
2023/12/14 06:44:55;;;;;;;13.77;10.67;;;;;;;;;;5073243;28;20480;-87
2023/12/14 06:47:21;;;;;;;13.43;11.10;;;;;;;;;;5076581;28;20518;-89
2023/12/14 06:49:47;;;;;;;13.50;10.60;;;;;;;;;;5079529;28;21027;-88
2023/12/14 06:52:14;;;;;;;12.87;10.23;;;;;;;;;;5079880;28;20460;-89
2023/12/14 06:54:40;;;;;;;12.23;10.90;;;;;;;;;;5074662;28;20568;-87
2023/12/14 06:57:08;;;;;;;12.30;10.53;;;;;;;;;;5078770;28;20528;-86
2023/12/14 06:59:35;;;;;;;14.70;11.10;;;;;;;;;;5077520;28;20456;-88
2023/12/14 07:02:01;;;;;;;14.03;11.90;;;;;;;;;;5073244;28;21150;-87
2023/12/14 07:04:27;;;;;;;12.30;10.03;;;;;;;;;;5074496;28;20459;-88
2023/12/14 07:06:54;;;;;;;12.80;10.00;;;;;;;;;;5070994;28;20472;-86
2023/12/14 07:09:20;;;;;;;11.23;9.43;;;;;;;;;;5078461;28;20527;-87
2023/12/14 07:11:47;;;;;;;14.33;11.63;;;;;;;;;;5078838;28;21153;-88
2023/12/14 07:14:15;;;;;;;12.57;9.50;;;;;;;;;;5079203;28;20487;-86
2023/12/14 07:16:41;;;;;;;9.77;8.77;;;;;;;;;;5068525;28;20495;-85
2023/12/14 07:19:08;;;;;;;10.93;8.87;;;;;;;;;;5070273;28;20523;-88
2023/12/14 07:21:34;;;;;;;10.60;9.57;;;;;;;;;;5072321;28;20502;-87
2023/12/14 07:24:00;;;;;;;12.93;11.53;;;;;;;;;;5068925;28;20483;-85
2023/12/14 07:26:27;;;;;;;12.83;10.57;;;;;;;;;;5067215;28;20512;-85
2023/12/14 07:28:54;;;;;;;11.47;9.40;;;;;;;;;;5071922;28;20552;-85
2023/12/14 07:31:22;;;;;;;14.37;10.30;;;;;;;;;;5067956;28;20455;-85
2023/12/14 07:33:48;;;;;;;13.33;11.10;;;;;;;;;;5069990;28;20532;-84
2023/12/14 07:36:15;;;;;;;11.50;9.73;;;;;;;;;;5075436;28;20546;-84
2023/12/14 07:38:41;;;;;;;13.20;10.07;;;;;;;;;;5069357;28;20530;-84
2023/12/14 07:41:07;;;;;;;12.20;10.47;;;;;;;;;;5078162;28;20539;-84
2023/12/14 07:43:34;;;;;;;11.03;9.70;;;;;;;;;;5072007;28;20520;-85
2023/12/14 07:46:00;;;;;;;12.27;9.50;;;;;;;;;;5074610;28;20491;-84
2023/12/14 07:48:29;;;;;;;13.87;11.00;;;;;;;;;;5074503;28;20543;-84
2023/12/14 07:50:55;;;;;;;11.67;9.73;;;;;;;;;;5078591;28;20455;-84
2023/12/14 07:53:22;;;;;;;13.87;11.30;;;;;;;;;;5079015;28;20503;-85
2023/12/14 07:55:48;;;;;;;12.20;10.63;;;;;;;;;;5072520;28;20503;-82
2023/12/14 07:58:15;;;;;;;13.43;10.40;;;;;;;;;;5075538;28;20502;-84
2023/12/14 08:00:41;;;;;;;12.40;9.90;;;;;;;;;;5077936;28;20483;-82
2023/12/14 08:03:07;;;;;;;10.37;9.23;;;;;;;;;;5075099;28;20471;-84
2023/12/14 08:05:35;;;;;;;9.80;8.80;;;;;;;;;;5077472;28;20494;-83
2023/12/14 08:08:02;;;;;;;10.00;9.00;;;;;;;;;;5077259;28;20474;-84
2023/12/14 08:10:28;;;;;;;11.37;9.33;;;;;;;;;;5077852;28;20479;-80
2023/12/14 08:12:54;;;;;;;11.83;9.13;;;;;;;;;;5072699;28;20475;-81
2023/12/14 08:15:21;;;;;;;10.27;9.27;;;;;;;;;;5072932;28;20547;-80
2023/12/14 08:17:47;;;;;;;9.37;8.47;;;;;;;;;;5073422;28;20452;-79
2023/12/14 08:20:14;;;;;;;9.57;8.57;;;;;;;;;;5071912;28;20476;-79
2023/12/14 08:22:44;;;;;;;9.63;8.73;;;;;;;;;;5071046;28;20448;-80
2023/12/14 08:25:11;;;;;;;12.60;10.10;;;;;;;;;;5069188;28;20448;-80
2023/12/14 08:27:38;;;;;;;11.03;9.97;;;;;;;;;;5080364;28;20443;-81
2023/12/14 08:30:05;;;;;;;10.53;9.60;;;;;;;;;;5077642;28;20579;-81
2023/12/14 08:32:31;;;;;;;11.47;10.37;;;;;;;;;;5077671;28;20447;-80
2023/12/14 08:34:57;;;;;;;11.43;10.20;;;;;;;;;;5079243;28;20482;-81
2023/12/14 08:37:24;;;;;;;11.70;10.50;;;;;;;;;;5074989;28;21085;-81
2023/12/14 08:39:52;;;;;;;11.40;10.40;;;;;;;;;;5082053;28;20448;-80
2023/12/14 08:42:18;;;;;;;10.90;9.80;;;;;;;;;;5081877;28;20448;-82
2023/12/14 08:44:45;;;;;;;12.17;10.60;;;;;;;;;;5080256;28;20969;-81
2023/12/14 08:47:11;;;;;;;12.33;11.00;;;;;;;;;;5081924;28;20524;-81
2023/12/14 08:49:38;;;;;;;12.47;10.63;;;;;;;;;;5082462;28;20523;-81
2023/12/14 08:52:05;;;;;;;11.20;10.10;;;;;;;;;;5075973;28;20922;-81
2023/12/14 08:54:31;;;;;;;13.17;10.20;;;;;;;;;;5071459;28;20515;-81
2023/12/14 08:57:00;;;;;;;11.77;10.57;;;;;;;;;;5075151;28;20510;-81
2023/12/14 08:59:27;;;;;;;12.37;11.03;;;;;;;;;;5078985;28;20459;-82
2023/12/14 09:01:54;;;;;;;11.77;10.57;;;;;;;;;;5075952;28;20454;-82
2023/12/14 09:04:21;;;;;;;12.67;11.40;;;;;;;;;;5077368;28;20495;-82
2023/12/14 09:06:47;;;;;;;12.70;11.20;;;;;;;;;;5081239;28;20452;-82
2023/12/14 09:09:13;;;;;;;13.90;12.47;;;;;;;;;;5073244;28;20494;-81
2023/12/14 09:11:40;;;;;;;14.03;11.97;;;;;;;;;;5077489;28;20502;-80
2023/12/14 09:14:08;;;;;;;14.77;12.10;;;;;;;;;;5081079;28;20518;-81
2023/12/14 09:16:34;;;;;;;15.63;12.30;;;;;;;;;;5082473;28;20475;-79
2023/12/14 09:19:00;;;;;;;14.00;12.50;;;;;;;;;;5075070;28;20516;-79
2023/12/14 09:21:27;;;;;;;14.57;12.43;;;;;;;;;;5073770;28;20488;-79
2023/12/14 09:23:53;;;;;;;17.23;11.50;;;;;;;;;;5072452;28;20471;-80
2023/12/14 09:26:20;;;;;;;12.97;11.67;;;;;;;;;;5077405;28;20451;-80
2023/12/14 09:28:46;;;;;;;13.37;11.97;;;;;;;;;;5078988;28;20625;-81
2023/12/14 09:31:15;;;;;;;14.30;12.53;;;;;;;;;;5075947;28;20453;-81
2023/12/14 09:33:42;;;;;;;13.73;12.30;;;;;;;;;;5078883;28;20467;-81
2023/12/14 09:36:09;;;;;;;11.63;10.37;;;;;;;;;;5079977;28;21143;-81
2023/12/14 09:38:36;;;;;;;13.53;12.13;;;;;;;;;;5075434;28;20833;-81
2023/12/14 09:41:02;;;;;;;13.87;12.37;;;;;;;;;;5073325;28;20540;-80
2023/12/14 09:43:29;;;;;;;13.37;11.97;;;;;;;;;;5078798;28;20841;-80
2023/12/14 09:45:55;;;;;;;14.53;11.90;;;;;;;;;;5080101;28;20944;-81
2023/12/14 09:48:24;;;;;;;12.93;11.63;;;;;;;;;;5079156;28;20451;-82
2023/12/14 09:50:51;;;;;;;11.33;10.27;;;;;;;;;;5079761;28;20515;-81
2023/12/14 09:53:18;;;;;;;12.10;10.90;;;;;;;;;;5081526;28;20463;-79
2023/12/14 09:55:44;;;;;;;12.53;11.33;;;;;;;;;;5081517;28;20524;-81
2023/12/14 09:58:12;;;;;;;12.00;10.80;;;;;;;;;;5081599;28;20490;-80
2023/12/14 10:00:39;;;;;;;11.53;10.43;;;;;;;;;;5079011;28;20460;-83
2023/12/14 10:03:20;;;;;;;11.33;10.23;;;;;;;;;;5075772;28;20445;-83
2023/12/14 10:05:49;;;;;;;10.23;9.23;;;;;;;;;;5076002;28;20491;-84
2023/12/14 10:08:15;;;;;;;11.43;10.20;;;;;;;;;;5079808;28;20832;-84
2023/12/14 10:10:42;;;;;;;11.47;10.40;;;;;;;;;;5076866;28;20483;-81
2023/12/14 10:13:08;;;;;;;10.97;9.87;;;;;;;;;;5066662;28;20472;-80
2023/12/14 10:15:41;;;;;;;13.33;11.90;;;;;;;;;;5074008;28;20456;-80
2023/12/14 10:18:07;;;;;;;10.70;9.60;;;;;;;;;;5079394;28;20667;-80
2023/12/14 10:20:34;;;;;;;10.90;9.90;;;;;;;;;;5077565;28;20479;-81
2023/12/14 10:23:02;;;;;;;11.70;10.50;;;;;;;;;;5079092;28;20484;-88
2023/12/14 10:25:28;;;;;;;10.63;8.83;;;;;;;;;;5074672;28;20551;-81
2023/12/14 10:27:55;;;;;;;11.83;10.67;;;;;;;;;;5073697;28;20470;-83
2023/12/14 10:30:21;;;;;;;10.43;9.33;;;;;;;;;;5077503;28;20579;-82
2023/12/14 10:32:48;;;;;;;13.37;10.60;;;;;;;;;;5072310;28;20494;-85
2023/12/14 10:35:16;;;;;;;13.53;10.83;;;;;;;;;;5078993;28;20480;-82
2023/12/14 10:37:42;;;;;;;10.53;9.43;;;;;;;;;;5072779;28;20456;-82
2023/12/14 10:40:11;;;;;;;11.40;9.77;;;;;;;;;;5078791;28;20499;-82
2023/12/14 10:42:38;;;;;;;10.37;9.37;;;;;;;;;;5079212;28;20543;-84
2023/12/14 10:45:06;;;;;;;11.33;9.40;;;;;;;;;;5079454;28;20519;-83
2023/12/14 10:47:33;;;;;;;11.43;10.03;;;;;;;;;;5078953;28;20492;-83
2023/12/14 10:50:01;;;;;;;11.07;9.97;;;;;;;;;;5079800;28;20496;-83
2023/12/14 10:52:28;;;;;;;12.67;11.40;;;;;;;;;;5080100;28;20718;-82
2023/12/14 10:54:57;;;;;;;11.10;10.10;;;;;;;;;;5074846;28;20486;-82
2023/12/14 10:57:25;;;;;;;11.50;10.47;;;;;;;;;;5076544;28;20540;-82
2023/12/14 10:59:58;;;;;;;13.07;11.53;;;;;;;;;;5079564;28;20480;-85
2023/12/14 11:02:24;;;;;;;11.43;10.17;;;;;;;;;;5074095;28;20493;-83
2023/12/14 11:04:58;;;;;;;11.40;10.40;;;;;;;;;;5079336;28;20487;-84
2023/12/14 11:07:43;;;;;;;13.43;9.43;;;;;;;;;;5077230;28;20897;-83
2023/12/14 11:10:11;;;;;;;10.50;9.50;;;;;;;;;;5072368;28;20551;-85
2023/12/14 11:12:39;;;;;;;10.03;9.13;;;;;;;;;;5070587;28;20548;-86
2023/12/14 11:15:06;;;;;;;9.73;8.90;;;;;;;;;;5080344;28;20480;-86
2023/12/14 11:17:34;;;;;;;15.60;14.40;;;;;;;;;;5078131;28;20476;-86
2023/12/14 11:20:24;;;;;;;15.53;14.23;;;;;;;;;;5071898;28;20461;-86
2023/12/14 11:22:50;;;;;;;13.13;11.93;;;;;;;;;;5077666;28;20486;-86
2023/12/14 11:25:17;;;;;;;10.10;9.30;;;;;;;;;;5071028;28;20544;-85
2023/12/14 11:27:45;;;;;;;12.53;11.57;;;;;;;;;;5065885;28;20965;-86
2023/12/14 11:30:12;;;;;;;13.50;12.40;;;;;;;;;;5075323;28;20487;-85
2023/12/14 11:32:38;;;;;;;12.50;11.60;;;;;;;;;;5078428;28;20444;-84
2023/12/14 11:35:08;;;;;;;12.70;11.70;;;;;;;;;;5080107;28;20459;-84
2023/12/14 11:37:35;;;;;;;12.13;11.13;;;;;;;;;;5079152;28;21012;-85
2023/12/14 11:40:04;;;;;;;12.47;11.60;;;;;;;;;;5078105;28;20959;-83
2023/12/14 11:42:32;;;;;;;8.50;7.60;;;;;;;;;;5078293;28;20459;-83
2023/12/14 11:45:00;;;;;;;11.60;10.70;;;;;;;;;;5069293;28;20605;-82
2023/12/14 11:47:26;;;;;;;11.80;10.80;;;;;;;;;;5077210;28;20551;-83
2023/12/14 11:49:53;;;;;;;10.03;9.03;;;;;;;;;;5070375;28;20486;-83
2023/12/14 11:52:19;;;;;;;8.93;8.13;;;;;;;;;;5075187;28;20571;-81
2023/12/14 11:54:45;;;;;;;9.33;8.53;;;;;;;;;;5071949;28;20454;-82
2023/12/14 11:57:12;;;;;;;12.67;11.67;;;;;;;;;;5070969;28;20503;-80
2023/12/14 11:59:38;;;;;;;11.63;10.63;;;;;;;;;;5066191;28;20512;-81
2023/12/14 12:02:07;;;;;;;11.60;9.80;;;;;;;;;;5075375;28;20468;-81
2023/12/14 12:04:34;;;;;;;10.23;9.10;;;;;;;;;;5074544;28;21006;-79
2023/12/14 12:07:01;;;;;;;10.00;9.20;;;;;;;;;;5080323;28;20499;-82
2023/12/14 12:09:37;;;;;;;9.00;8.20;;;;;;;;;;5077939;28;20483;-81
2023/12/14 12:12:06;;;;;;;10.43;9.50;;;;;;;;;;5077748;28;20464;-80
2023/12/14 12:14:32;;;;;;;9.80;8.90;;;;;;;;;;5079029;28;20483;-80
2023/12/14 12:16:59;;;;;;;9.23;8.43;;;;;;;;;;5071937;28;20464;-80
2023/12/14 12:19:27;;;;;;;11.67;10.57;;;;;;;;;;5077666;28;20487;-79
2023/12/14 12:21:53;;;;;;;9.63;8.73;;;;;;;;;;5078140;28;20502;-79
2023/12/14 12:24:20;;;;;;;10.00;9.20;;;;;;;;;;5081188;28;20474;-80
2023/12/14 12:26:46;;;;;;;9.90;9.00;;;;;;;;;;5081823;28;20975;-80
2023/12/14 12:29:13;;;;;;;9.30;8.50;;;;;;;;;;5081035;28;20894;-81
2023/12/14 12:31:39;;;;;;;10.37;9.47;;;;;;;;;;5077127;28;20523;-80
2023/12/14 12:34:06;;;;;;;9.73;8.93;;;;;;;;;;5078402;28;21093;-80
2023/12/14 12:36:34;;;;;;;9.30;8.60;;;;;;;;;;5076808;28;20511;-81
2023/12/14 12:39:00;;;;;;;10.03;9.30;;;;;;;;;;5079014;28;20696;-80
2023/12/14 12:41:27;;;;;;;9.73;8.93;;;;;;;;;;5079368;28;20883;-82
2023/12/14 12:43:53;;;;;;;10.27;9.37;;;;;;;;;;5079562;28;20452;-81
2023/12/14 12:46:19;;;;;;;9.83;9.10;;;;;;;;;;5074061;28;20510;-82
2023/12/14 12:48:46;;;;;;;8.67;7.90;;;;;;;;;;5073836;28;20542;-81
2023/12/14 12:51:13;;;;;;;9.10;8.30;;;;;;;;;;5074017;28;20560;-81
2023/12/14 12:53:41;;;;;;;8.97;7.90;;;;;;;;;;5078621;28;20547;-81
2023/12/14 12:56:07;;;;;;;9.03;8.23;;;;;;;;;;5081222;28;20483;-81
2023/12/14 12:58:34;;;;;;;9.20;8.50;;;;;;;;;;5080647;28;20480;-80
2023/12/14 13:01:00;;;;;;;9.50;8.80;;;;;;;;;;5069878;28;20496;-81
2023/12/14 13:03:27;;;;;;;9.60;8.70;;;;;;;;;;5079753;28;20457;-81
2023/12/14 13:05:53;;;;;;;9.67;8.97;;;;;;;;;;5081742;28;20448;-81
2023/12/14 13:08:22;;;;;;;7.97;7.37;;;;;;;;;;5079882;28;20530;-82
2023/12/14 13:10:51;;;;;;;9.07;8.23;;;;;;;;;;5079540;28;20495;-82
2023/12/14 13:13:17;;;;;;;9.20;8.40;;;;;;;;;;5069583;28;20448;-82
2023/12/14 13:15:44;;;;;;;9.27;8.63;;;;;;;;;;5073164;28;20550;-82
2023/12/14 13:18:10;;;;;;;9.70;8.90;;;;;;;;;;5075415;28;20476;-81
2023/12/14 13:20:37;;;;;;;7.97;7.40;;;;;;;;;;5077856;28;20964;-81
2023/12/14 13:23:03;;;;;;;8.40;7.70;;;;;;;;;;5074689;28;21090;-82
2023/12/14 13:25:29;;;;;;;8.73;8.03;;;;;;;;;;5072343;28;20483;-81
2023/12/14 13:27:57;;;;;;;9.10;8.40;;;;;;;;;;5078696;28;20487;-83
2023/12/14 13:30:24;;;;;;;7.57;6.97;;;;;;;;;;5080485;28;20496;-83
2023/12/14 13:32:50;;;;;;;8.00;7.30;;;;;;;;;;5080051;28;20499;-81
2023/12/14 13:35:17;;;;;;;8.40;7.70;;;;;;;;;;5080501;28;20459;-81
2023/12/14 13:37:43;;;;;;;8.10;7.40;;;;;;;;;;5080631;28;20564;-80
2023/12/14 13:40:10;;;;;;;7.73;7.03;;;;;;;;;;5079848;28;20471;-81
2023/12/14 13:42:37;;;;;;;7.80;7.20;;;;;;;;;;5081782;28;20460;-81
2023/12/14 13:45:05;;;;;;;8.40;7.80;;;;;;;;;;5078774;28;20488;-82
2023/12/14 13:47:31;;;;;;;7.97;7.37;;;;;;;;;;5079069;28;20472;-83
2023/12/14 13:49:58;;;;;;;9.03;8.40;;;;;;;;;;5072060;28;20801;-83
2023/12/14 13:52:24;;;;;;;8.60;8.00;;;;;;;;;;5082581;28;20461;-81
2023/12/14 13:54:51;;;;;;;8.33;7.63;;;;;;;;;;5081686;28;20466;-82
2023/12/14 13:57:18;;;;;;;8.47;7.87;;;;;;;;;;5079441;28;20471;-81
2023/12/14 13:59:45;;;;;;;8.77;7.97;;;;;;;;;;5081443;28;20452;-81
2023/12/14 14:02:13;;;;;;;8.37;7.77;;;;;;;;;;5071985;28;20460;-81
2023/12/14 14:04:39;;;;;;;8.70;8.10;;;;;;;;;;5079142;28;20513;-82
2023/12/14 14:07:06;;;;;;;8.67;7.87;;;;;;;;;;5079204;28;20509;-81
2023/12/14 14:09:32;;;;;;;8.93;8.13;;;;;;;;;;5073576;28;20502;-82
2023/12/14 14:11:59;;;;;;;8.27;7.60;;;;;;;;;;5079727;28;20526;-81
2023/12/14 14:14:25;;;;;;;8.97;8.23;;;;;;;;;;5076117;28;20492;-83
2023/12/14 14:16:52;;;;;;;8.77;7.97;;;;;;;;;;5079102;28;20495;-81
2023/12/14 14:19:19;;;;;;;10.63;9.60;;;;;;;;;;5077539;28;20539;-82
2023/12/14 14:21:46;;;;;;;9.23;8.53;;;;;;;;;;5079866;28;20463;-83
2023/12/14 14:24:12;;;;;;;9.00;8.20;;;;;;;;;;5080887;28;20513;-83
2023/12/14 14:26:39;;;;;;;9.90;9.10;;;;;;;;;;5077027;28;21317;-82